METAR Data
IDs: Format: Raw Decoded Include TAF

Data at: 1450 UTC 19 Jul 2019

METAR for:KRYW (Lago Vista/Allen Arp, TX, US)
Text:KRYW 191435Z AUTO 19008G19KT 10SM SCT019 27/22 A3003 RMK AO2 T02680215
Temperature: 26.8°C ( 80°F)
Dewpoint: 21.5°C ( 71°F) [RH = 73%]
Pressure (altimeter):30.03 inches Hg (1017.0 mb)
Winds:from the S (190 degrees) at 9 MPH (8 knots; 4.1 m/s) gusting to 22 MPH (19 knots; 9.8 m/s)
Visibility:10 or more sm (16+ km)
Ceiling:at least 12,000 feet AGL
Clouds: scattered clouds at 1900 feet AGL
QC Flag:automated observation with no human augmentation